LPPRLPMA

Guest
Details From LPPR - Porto
To LPMA - Madeira
Flight Number -
Tags generated
Created
Modified
Stats Distance 654 nm / 1,212 km
Max Altitude 35,000 ft / 10,668 m
Waypoints 7
Social Downloads 25
Likes 0
Share VATSIM

Download

Looking for another format? Having issues loading an existing format? Contact us
Advertisement - Login to hide

Notes

Basic altitude profile: - Ascent Rate: 2500ft/min - Ascent Speed: 250kts - Cruise Altitude: 35000ft - Cruise Speed: 420kts - Descent Rate: 1500ft/min - Descent Speed: 250kts Options: - Use NATs: yes - Use PACOTS: yes - Use low airways: yes - Use high airways: yes

Route

LPPR TERVA UN866 ORSOS UZ9 NARTA B18 RAKUN LPMA

ID Type Via Altitude Latitude Longitude Leg Dist Tot Dist Heading (true) Name
O LPPR APT - 0 ft / 0 m 41.24793˚ -8.68122˚ - 0 nm - Porto
TERVA FIX - 23,100 ft / 7,041 m 40.41667˚ -9.59111˚ 64 nm 64 nm 220° / 219° -
ORSOS FIX UN866 (AWY-HI) 35,000 ft / 10,668 m 39.00000˚ -10.20889˚ 89 nm 154 nm 199° / 198° -
NARTA FIX UZ9 (AWY-HI) 35,000 ft / 10,668 m 36.05639˚ -12.55806˚ 209 nm 363 nm 213° / 212° -
RULET FIX B18 (AWY-LO) 28,200 ft / 8,595 m 34.25167˚ -14.91556˚ 158 nm 522 nm 228° / 226° -
RAKUN FIX B18 (AWY-LO) 15,300 ft / 4,663 m 33.55694˚ -15.78139˚ 60 nm 582 nm 226° / 226° -
O LPMA APT - 0 ft / 0 m 32.69770˚ -16.77445˚ 71 nm 654 nm 224° / 224° Madeira

Altitude Profile

Advertisement - Login to hide

Weather


0- 5 10 15 20 25 30 35+ Temperature / ° C

Clouds and Precipitation
Forecast for 2017-10-24 06:00 UTC. Updated 28 minutes ago

Ground ~20,000 ft ~40,000 ft Winds

LPPR

Details ICAO LPPR (OPO)
Name Porto
Region Portugal
Timezone Europe/Lisbon (UTC+1.0)
Stats Elevation 228 ft / 69 m (AMSL)
Location 41.247932° -8.681221°
Runways 1
Magnetic Variation 2.358° W

METAR

LPPR 240130Z VRB01KT CAVOK 12/09 Q1022

Decode

TAF

TAF LPPR 232300Z 2400/2424 08005KT CAVOK BECMG 2404/2406 11008KT BECMG 2413/2415 26008KT BECMG 2418/2420 VRB03KT

Decode

Departure Runways

ID Width Length Bearing (true) Bearing (mag) Surface Threshold Offset Overrun Length
17 148 ft / 45 m 11,451 ft / 3,490 m 168.88° 171.24° Asphalt 984 ft / 300 m 220 ft / 67 m
35 148 ft / 45 m 11,451 ft / 3,490 m 348.89° 351.25° Asphalt 492 ft / 150 m 370 ft / 113 m

LPMA

Details ICAO LPMA (FNC)
Name Madeira
Region Portugal
Timezone Atlantic/Madeira (UTC+1.0)
Stats Elevation 192 ft / 59 m (AMSL)
Location 32.697704° -16.774449°
Runways 1
Magnetic Variation 4.999° W

METAR

LPMA 240130Z 35004KT 9999 SCT016 SCT030 20/14 Q1020

Decode

TAF

TAF LPMA 232300Z 2400/2424 01007KT 9999 SCT015 BKN033 BECMG 2402/2405 VRB05KT BECMG 2410/2413 20010KT BECMG 2418/2421 VRB05KT

Decode

Destination Runways

ID Width Length Bearing (true) Bearing (mag) Surface Threshold Offset Overrun Length
05 141 ft / 43 m 8,683 ft / 2,647 m 42.98° 47.98° Asphalt 472 ft / 144 m 0 ft / 0 m
23 141 ft / 43 m 8,683 ft / 2,647 m 222.99° 227.99° Asphalt 466 ft / 142 m 0 ft / 0 m

Popular Alternatives